sensor_id;sensor_type;location;lat;lon;timestamp;temperature;humidity
77700;DHT22;66867;42.658;23.320;2023-02-23T00:00:00;9.9;60
77700;DHT22;66867;42.658;23.320;2023-02-23T00:01:00;9.9;60
77700;DHT22;66867;42.658;23.320;2023-02-23T00:02:00;9.9;61
77700;DHT22;66867;42.658;23.320;2023-02-23T00:03:01;9.9;61
77700;DHT22;66867;42.658;23.320;2023-02-23T00:04:01;9.9;61
77700;DHT22;66867;42.658;23.320;2023-02-23T00:05:00;10.0;61
77700;DHT22;66867;42.658;23.320;2023-02-23T00:06:01;10.0;61
77700;DHT22;66867;42.658;23.320;2023-02-23T00:07:00;10.0;61
77700;DHT22;66867;42.658;23.320;2023-02-23T00:08:00;10.0;61
77700;DHT22;66867;42.658;23.320;2023-02-23T00:09:00;10.0;61
77700;DHT22;66867;42.658;23.320;2023-02-23T00:10:00;10.0;61
77700;DHT22;66867;42.658;23.320;2023-02-23T00:11:02;10.0;61
77700;DHT22;66867;42.658;23.320;2023-02-23T00:12:00;10.0;61
77700;DHT22;66867;42.658;23.320;2023-02-23T00:13:00;10.0;61
77700;DHT22;66867;42.658;23.320;2023-02-23T00:14:00;10.0;61
77700;DHT22;66867;42.658;23.320;2023-02-23T00:15:00;10.0;61
77700;DHT22;66867;42.658;23.320;2023-02-23T00:16:02;10.0;61
77700;DHT22;66867;42.658;23.320;2023-02-23T00:17:00;10.0;60
77700;DHT22;66867;42.658;23.320;2023-02-23T00:18:00;10.0;60
77700;DHT22;66867;42.658;23.320;2023-02-23T00:19:00;9.9;60
77700;DHT22;66867;42.658;23.320;2023-02-23T00:20:00;9.9;60
77700;DHT22;66867;42.658;23.320;2023-02-23T00:21:00;9.9;60
77700;DHT22;66867;42.658;23.320;2023-02-23T00:22:00;9.8;60
77700;DHT22;66867;42.658;23.320;2023-02-23T00:23:00;9.8;60
77700;DHT22;66867;42.658;23.320;2023-02-23T00:24:01;9.8;60
77700;DHT22;66867;42.658;23.320;2023-02-23T00:25:00;9.8;60
77700;DHT22;66867;42.658;23.320;2023-02-23T00:26:02;9.7;60
77700;DHT22;66867;42.658;23.320;2023-02-23T00:27:00;9.7;60
77700;DHT22;66867;42.658;23.320;2023-02-23T00:28:00;9.7;60
77700;DHT22;66867;42.658;23.320;2023-02-23T00:29:02;9.7;60
77700;DHT22;66867;42.658;23.320;2023-02-23T00:30:00;9.6;60
77700;DHT22;66867;42.658;23.320;2023-02-23T00:31:01;9.6;60
77700;DHT22;66867;42.658;23.320;2023-02-23T00:32:00;9.6;60
77700;DHT22;66867;42.658;23.320;2023-02-23T00:33:00;9.6;61
77700;DHT22;66867;42.658;23.320;2023-02-23T00:34:01;9.5;61
77700;DHT22;66867;42.658;23.320;2023-02-23T00:35:00;9.5;61
77700;DHT22;66867;42.658;23.320;2023-02-23T00:36:04;9.5;61
77700;DHT22;66867;42.658;23.320;2023-02-23T00:37:00;9.4;60
77700;DHT22;66867;42.658;23.320;2023-02-23T00:38:00;9.4;60
77700;DHT22;66867;42.658;23.320;2023-02-23T00:39:01;9.4;60
77700;DHT22;66867;42.658;23.320;2023-02-23T00:40:00;9.3;60
77700;DHT22;66867;42.658;23.320;2023-02-23T00:41:04;9.3;60
77700;DHT22;66867;42.658;23.320;2023-02-23T00:42:00;9.3;60
77700;DHT22;66867;42.658;23.320;2023-02-23T00:43:00;9.3;60
77700;DHT22;66867;42.658;23.320;2023-02-23T00:44:00;9.3;60
77700;DHT22;66867;42.658;23.320;2023-02-23T00:45:00;9.3;61
77700;DHT22;66867;42.658;23.320;2023-02-23T00:46:00;9.3;61
77700;DHT22;66867;42.658;23.320;2023-02-23T00:47:00;9.3;61
77700;DHT22;66867;42.658;23.320;2023-02-23T00:48:00;9.3;61
77700;DHT22;66867;42.658;23.320;2023-02-23T00:49:00;9.3;62
77700;DHT22;66867;42.658;23.320;2023-02-23T00:50:00;9.3;62
77700;DHT22;66867;42.658;23.320;2023-02-23T00:51:01;9.3;62
77700;DHT22;66867;42.658;23.320;2023-02-23T00:52:00;9.3;62
77700;DHT22;66867;42.658;23.320;2023-02-23T00:53:00;9.3;62
77700;DHT22;66867;42.658;23.320;2023-02-23T00:54:00;9.3;62
77700;DHT22;66867;42.658;23.320;2023-02-23T00:55:00;9.3;62
77700;DHT22;66867;42.658;23.320;2023-02-23T00:56:02;9.2;62
77700;DHT22;66867;42.658;23.320;2023-02-23T00:57:00;9.2;62
77700;DHT22;66867;42.658;23.320;2023-02-23T00:58:00;9.2;62
77700;DHT22;66867;42.658;23.320;2023-02-23T00:59:00;9.2;62
77700;DHT22;66867;42.658;23.320;2023-02-23T01:00:00;9.2;62
77700;DHT22;66867;42.658;23.320;2023-02-23T01:01:00;9.1;62
77700;DHT22;66867;42.658;23.320;2023-02-23T01:02:00;9.1;62
77700;DHT22;66867;42.658;23.320;2023-02-23T01:03:00;9.1;62
77700;DHT22;66867;42.658;23.320;2023-02-23T01:04:00;9.0;62
77700;DHT22;66867;42.658;23.320;2023-02-23T01:05:00;9.0;62
77700;DHT22;66867;42.658;23.320;2023-02-23T01:06:01;9.0;62
77700;DHT22;66867;42.658;23.320;2023-02-23T01:07:00;9.0;62
77700;DHT22;66867;42.658;23.320;2023-02-23T01:08:00;9.0;62
77700;DHT22;66867;42.658;23.320;2023-02-23T01:09:00;8.9;62
77700;DHT22;66867;42.658;23.320;2023-02-23T01:10:00;8.9;62
77700;DHT22;66867;42.658;23.320;2023-02-23T01:11:08;8.9;62
77700;DHT22;66867;42.658;23.320;2023-02-23T01:12:00;8.9;62
77700;DHT22;66867;42.658;23.320;2023-02-23T01:13:00;8.9;62
77700;DHT22;66867;42.658;23.320;2023-02-23T01:14:00;8.8;62
77700;DHT22;66867;42.658;23.320;2023-02-23T01:15:00;8.8;62
77700;DHT22;66867;42.658;23.320;2023-02-23T01:16:02;8.8;62
77700;DHT22;66867;42.658;23.320;2023-02-23T01:17:00;8.8;62
77700;DHT22;66867;42.658;23.320;2023-02-23T01:18:00;8.8;62
77700;DHT22;66867;42.658;23.320;2023-02-23T01:19:01;8.8;62
77700;DHT22;66867;42.658;23.320;2023-02-23T01:20:00;8.8;63
77700;DHT22;66867;42.658;23.320;2023-02-23T01:21:01;8.8;63
77700;DHT22;66867;42.658;23.320;2023-02-23T01:22:00;8.8;63
77700;DHT22;66867;42.658;23.320;2023-02-23T01:23:00;8.8;62
77700;DHT22;66867;42.658;23.320;2023-02-23T01:24:00;8.8;63
77700;DHT22;66867;42.658;23.320;2023-02-23T01:25:00;8.8;63
77700;DHT22;66867;42.658;23.320;2023-02-23T01:26:00;8.8;63
77700;DHT22;66867;42.658;23.320;2023-02-23T01:27:00;8.8;63
77700;DHT22;66867;42.658;23.320;2023-02-23T01:28:00;8.8;63
77700;DHT22;66867;42.658;23.320;2023-02-23T01:29:02;8.7;63
77700;DHT22;66867;42.658;23.320;2023-02-23T01:30:00;8.7;63
77700;DHT22;66867;42.658;23.320;2023-02-23T01:31:00;8.7;63
77700;DHT22;66867;42.658;23.320;2023-02-23T01:32:00;8.7;63
77700;DHT22;66867;42.658;23.320;2023-02-23T01:33:00;8.7;63
77700;DHT22;66867;42.658;23.320;2023-02-23T01:34:01;8.7;63
77700;DHT22;66867;42.658;23.320;2023-02-23T01:35:00;8.7;63
77700;DHT22;66867;42.658;23.320;2023-02-23T01:36:00;8.7;63
77700;DHT22;66867;42.658;23.320;2023-02-23T01:37:00;8.7;63
77700;DHT22;66867;42.658;23.320;2023-02-23T01:38:00;8.6;64
77700;DHT22;66867;42.658;23.320;2023-02-23T01:39:00;8.6;64
77700;DHT22;66867;42.658;23.320;2023-02-23T01:40:00;8.7;64
77700;DHT22;66867;42.658;23.320;2023-02-23T01:41:00;8.7;64
77700;DHT22;66867;42.658;23.320;2023-02-23T01:42:00;8.7;64
77700;DHT22;66867;42.658;23.320;2023-02-23T01:46:00;8.7;64
77700;DHT22;66867;42.658;23.320;2023-02-23T01:47:00;8.7;64
77700;DHT22;66867;42.658;23.320;2023-02-23T01:48:03;8.7;64
77700;DHT22;66867;42.658;23.320;2023-02-23T01:49:00;8.7;64
77700;DHT22;66867;42.658;23.320;2023-02-23T01:50:00;8.7;64
77700;DHT22;66867;42.658;23.320;2023-02-23T01:51:01;8.7;64
77700;DHT22;66867;42.658;23.320;2023-02-23T01:52:04;8.7;64
77700;DHT22;66867;42.658;23.320;2023-02-23T01:53:00;8.7;63
77700;DHT22;66867;42.658;23.320;2023-02-23T01:54:01;8.7;63
77700;DHT22;66867;42.658;23.320;2023-02-23T01:55:00;8.6;63
77700;DHT22;66867;42.658;23.320;2023-02-23T01:56:02;8.7;63
77700;DHT22;66867;42.658;23.320;2023-02-23T01:57:01;8.6;63
77700;DHT22;66867;42.658;23.320;2023-02-23T01:58:02;8.6;63
77700;DHT22;66867;42.658;23.320;2023-02-23T01:59:02;8.6;63
77700;DHT22;66867;42.658;23.320;2023-02-23T02:00:00;8.6;63
77700;DHT22;66867;42.658;23.320;2023-02-23T02:01:00;8.5;63
77700;DHT22;66867;42.658;23.320;2023-02-23T02:02:00;8.5;64
77700;DHT22;66867;42.658;23.320;2023-02-23T02:03:00;8.5;63
77700;DHT22;66867;42.658;23.320;2023-02-23T02:04:01;8.4;64
77700;DHT22;66867;42.658;23.320;2023-02-23T02:05:00;8.4;64
77700;DHT22;66867;42.658;23.320;2023-02-23T02:06:01;8.4;64
77700;DHT22;66867;42.658;23.320;2023-02-23T02:07:00;8.4;64
77700;DHT22;66867;42.658;23.320;2023-02-23T02:08:00;8.4;64
77700;DHT22;66867;42.658;23.320;2023-02-23T02:09:02;8.4;64
77700;DHT22;66867;42.658;23.320;2023-02-23T02:10:00;8.3;64
77700;DHT22;66867;42.658;23.320;2023-02-23T02:11:00;8.4;64
77700;DHT22;66867;42.658;23.320;2023-02-23T02:12:00;8.3;64
77700;DHT22;66867;42.658;23.320;2023-02-23T02:13:00;8.3;64
77700;DHT22;66867;42.658;23.320;2023-02-23T02:14:08;8.3;64
77700;DHT22;66867;42.658;23.320;2023-02-23T02:15:00;8.2;64
77700;DHT22;66867;42.658;23.320;2023-02-23T02:16:33;8.3;64
77700;DHT22;66867;42.658;23.320;2023-02-23T02:18:09;8.2;64
77700;DHT22;66867;42.658;23.320;2023-02-23T02:21:08;8.2;65
77700;DHT22;66867;42.658;23.320;2023-02-23T02:22:08;8.2;65
77700;DHT22;66867;42.658;23.320;2023-02-23T02:37:10;8.1;65
77700;DHT22;66867;42.658;23.320;2023-02-23T02:38:17;8.1;65
77700;DHT22;66867;42.658;23.320;2023-02-23T02:39:10;8.1;65
77700;DHT22;66867;42.658;23.320;2023-02-23T02:41:02;8.1;65
77700;DHT22;66867;42.658;23.320;2023-02-23T02:42:05;8.1;65
77700;DHT22;66867;42.658;23.320;2023-02-23T02:45:20;8.1;66
77700;DHT22;66867;42.658;23.320;2023-02-23T02:46:03;8.1;66
77700;DHT22;66867;42.658;23.320;2023-02-23T02:47:03;8.1;66
77700;DHT22;66867;42.658;23.320;2023-02-23T02:48:03;8.1;66
77700;DHT22;66867;42.658;23.320;2023-02-23T02:50:05;8.1;65
77700;DHT22;66867;42.658;23.320;2023-02-23T02:51:05;8.1;65
77700;DHT22;66867;42.658;23.320;2023-02-23T02:52:10;8.1;66
77700;DHT22;66867;42.658;23.320;2023-02-23T02:53:01;8.1;66
77700;DHT22;66867;42.658;23.320;2023-02-23T02:54:01;8.1;66
77700;DHT22;66867;42.658;23.320;2023-02-23T02:55:03;8.1;66
77700;DHT22;66867;42.658;23.320;2023-02-23T02:56:00;8.1;66
77700;DHT22;66867;42.658;23.320;2023-02-23T02:57:01;8.1;66
77700;DHT22;66867;42.658;23.320;2023-02-23T02:58:01;8.1;66
77700;DHT22;66867;42.658;23.320;2023-02-23T02:59:00;8.1;67
77700;DHT22;66867;42.658;23.320;2023-02-23T03:00:00;8.1;67
77700;DHT22;66867;42.658;23.320;2023-02-23T03:01:05;8.2;67
77700;DHT22;66867;42.658;23.320;2023-02-23T03:02:01;8.1;67
77700;DHT22;66867;42.658;23.320;2023-02-23T03:03:00;8.2;67
77700;DHT22;66867;42.658;23.320;2023-02-23T03:04:01;8.2;67
77700;DHT22;66867;42.658;23.320;2023-02-23T03:05:00;8.2;67
77700;DHT22;66867;42.658;23.320;2023-02-23T03:06:00;8.2;66
77700;DHT22;66867;42.658;23.320;2023-02-23T03:07:01;8.2;66
77700;DHT22;66867;42.658;23.320;2023-02-23T03:09:02;8.2;66
77700;DHT22;66867;42.658;23.320;2023-02-23T03:10:02;8.1;66
77700;DHT22;66867;42.658;23.320;2023-02-23T03:11:01;8.1;66
77700;DHT22;66867;42.658;23.320;2023-02-23T03:13:05;8.1;66
77700;DHT22;66867;42.658;23.320;2023-02-23T03:16:08;8.1;66
77700;DHT22;66867;42.658;23.320;2023-02-23T03:20:06;8.0;65
77700;DHT22;66867;42.658;23.320;2023-02-23T03:21:02;8.0;65
77700;DHT22;66867;42.658;23.320;2023-02-23T03:22:05;8.0;65
77700;DHT22;66867;42.658;23.320;2023-02-23T03:24:04;7.9;66
77700;DHT22;66867;42.658;23.320;2023-02-23T03:25:03;7.9;66
77700;DHT22;66867;42.658;23.320;2023-02-23T03:27:02;7.9;66
77700;DHT22;66867;42.658;23.320;2023-02-23T03:29:01;7.9;66
77700;DHT22;66867;42.658;23.320;2023-02-23T03:30:05;7.9;66
77700;DHT22;66867;42.658;23.320;2023-02-23T03:33:02;7.8;66
77700;DHT22;66867;42.658;23.320;2023-02-23T03:35:03;7.8;66
77700;DHT22;66867;42.658;23.320;2023-02-23T03:36:02;7.8;66
77700;DHT22;66867;42.658;23.320;2023-02-23T03:37:02;7.8;66
77700;DHT22;66867;42.658;23.320;2023-02-23T03:39:05;7.8;66
77700;DHT22;66867;42.658;23.320;2023-02-23T03:40:04;7.8;66
77700;DHT22;66867;42.658;23.320;2023-02-23T03:42:01;7.8;66
77700;DHT22;66867;42.658;23.320;2023-02-23T03:43:00;7.8;66
77700;DHT22;66867;42.658;23.320;2023-02-23T03:44:04;7.8;66
77700;DHT22;66867;42.658;23.320;2023-02-23T03:45:02;7.8;66
77700;DHT22;66867;42.658;23.320;2023-02-23T03:46:00;7.8;66
77700;DHT22;66867;42.658;23.320;2023-02-23T03:47:00;7.8;66
77700;DHT22;66867;42.658;23.320;2023-02-23T03:48:00;7.8;66
77700;DHT22;66867;42.658;23.320;2023-02-23T03:49:00;7.7;66
77700;DHT22;66867;42.658;23.320;2023-02-23T03:50:01;7.7;66
77700;DHT22;66867;42.658;23.320;2023-02-23T03:51:01;7.7;66
77700;DHT22;66867;42.658;23.320;2023-02-23T03:52:02;7.7;66
77700;DHT22;66867;42.658;23.320;2023-02-23T03:53:00;7.7;66
77700;DHT22;66867;42.658;23.320;2023-02-23T03:55:01;7.7;66
77700;DHT22;66867;42.658;23.320;2023-02-23T03:56:00;7.7;66
77700;DHT22;66867;42.658;23.320;2023-02-23T03:57:01;7.7;66
77700;DHT22;66867;42.658;23.320;2023-02-23T03:58:00;7.7;66
77700;DHT22;66867;42.658;23.320;2023-02-23T03:59:00;7.7;67
77700;DHT22;66867;42.658;23.320;2023-02-23T04:00:00;7.7;67
77700;DHT22;66867;42.658;23.320;2023-02-23T04:01:01;7.6;67
77700;DHT22;66867;42.658;23.320;2023-02-23T04:02:00;7.7;67
77700;DHT22;66867;42.658;23.320;2023-02-23T04:03:00;7.7;67
77700;DHT22;66867;42.658;23.320;2023-02-23T04:04:00;7.7;67
77700;DHT22;66867;42.658;23.320;2023-02-23T04:05:01;7.7;67
77700;DHT22;66867;42.658;23.320;2023-02-23T04:06:00;7.7;67
77700;DHT22;66867;42.658;23.320;2023-02-23T04:07:01;7.7;67
77700;DHT22;66867;42.658;23.320;2023-02-23T04:08:01;7.7;67
77700;DHT22;66867;42.658;23.320;2023-02-23T04:09:00;7.8;68
77700;DHT22;66867;42.658;23.320;2023-02-23T04:10:00;7.8;68
77700;DHT22;66867;42.658;23.320;2023-02-23T04:11:04;7.8;68
77700;DHT22;66867;42.658;23.320;2023-02-23T04:12:05;7.8;68
77700;DHT22;66867;42.658;23.320;2023-02-23T04:13:02;7.8;68
77700;DHT22;66867;42.658;23.320;2023-02-23T04:14:01;7.8;69
77700;DHT22;66867;42.658;23.320;2023-02-23T04:15:03;7.9;69
77700;DHT22;66867;42.658;23.320;2023-02-23T04:16:02;7.8;69
77700;DHT22;66867;42.658;23.320;2023-02-23T04:17:00;7.9;69
77700;DHT22;66867;42.658;23.320;2023-02-23T04:18:02;7.9;68
77700;DHT22;66867;42.658;23.320;2023-02-23T04:19:00;7.8;68
77700;DHT22;66867;42.658;23.320;2023-02-23T04:20:00;7.8;67
77700;DHT22;66867;42.658;23.320;2023-02-23T04:21:00;7.8;67
77700;DHT22;66867;42.658;23.320;2023-02-23T04:22:00;7.8;67
77700;DHT22;66867;42.658;23.320;2023-02-23T04:23:00;7.8;67
77700;DHT22;66867;42.658;23.320;2023-02-23T04:24:00;7.8;67
77700;DHT22;66867;42.658;23.320;2023-02-23T04:25:00;7.8;68
77700;DHT22;66867;42.658;23.320;2023-02-23T04:26:00;7.8;68
77700;DHT22;66867;42.658;23.320;2023-02-23T04:27:00;7.8;68
77700;DHT22;66867;42.658;23.320;2023-02-23T04:28:00;7.8;68
77700;DHT22;66867;42.658;23.320;2023-02-23T04:29:00;7.8;67
77700;DHT22;66867;42.658;23.320;2023-02-23T04:30:00;7.8;67
77700;DHT22;66867;42.658;23.320;2023-02-23T04:31:00;7.8;67
77700;DHT22;66867;42.658;23.320;2023-02-23T04:32:00;7.8;67
77700;DHT22;66867;42.658;23.320;2023-02-23T04:33:00;7.8;67
77700;DHT22;66867;42.658;23.320;2023-02-23T04:34:00;7.8;67
77700;DHT22;66867;42.658;23.320;2023-02-23T04:35:00;7.7;67
77700;DHT22;66867;42.658;23.320;2023-02-23T04:36:00;7.7;67
77700;DHT22;66867;42.658;23.320;2023-02-23T04:38:00;7.7;67
77700;DHT22;66867;42.658;23.320;2023-02-23T04:39:00;7.7;67
77700;DHT22;66867;42.658;23.320;2023-02-23T04:40:00;7.7;67
77700;DHT22;66867;42.658;23.320;2023-02-23T04:41:00;7.7;67
77700;DHT22;66867;42.658;23.320;2023-02-23T04:42:00;7.6;67
77700;DHT22;66867;42.658;23.320;2023-02-23T04:43:00;7.6;67
77700;DHT22;66867;42.658;23.320;2023-02-23T04:44:00;7.6;67
77700;DHT22;66867;42.658;23.320;2023-02-23T04:45:00;7.6;67
77700;DHT22;66867;42.658;23.320;2023-02-23T04:46:00;7.6;67
77700;DHT22;66867;42.658;23.320;2023-02-23T04:47:00;7.5;67
77700;DHT22;66867;42.658;23.320;2023-02-23T04:48:00;7.5;67
77700;DHT22;66867;42.658;23.320;2023-02-23T04:49:00;7.5;67
77700;DHT22;66867;42.658;23.320;2023-02-23T04:50:00;7.5;67
77700;DHT22;66867;42.658;23.320;2023-02-23T04:51:00;7.5;67
77700;DHT22;66867;42.658;23.320;2023-02-23T04:52:00;7.5;67
77700;DHT22;66867;42.658;23.320;2023-02-23T04:53:00;7.5;67
77700;DHT22;66867;42.658;23.320;2023-02-23T04:54:00;7.5;67
77700;DHT22;66867;42.658;23.320;2023-02-23T04:55:00;7.5;67
77700;DHT22;66867;42.658;23.320;2023-02-23T04:56:00;7.5;67
77700;DHT22;66867;42.658;23.320;2023-02-23T04:57:00;7.5;67
77700;DHT22;66867;42.658;23.320;2023-02-23T04:58:02;7.5;67
77700;DHT22;66867;42.658;23.320;2023-02-23T04:59:00;7.5;67
77700;DHT22;66867;42.658;23.320;2023-02-23T05:00:00;7.5;67
77700;DHT22;66867;42.658;23.320;2023-02-23T05:01:07;7.5;68
77700;DHT22;66867;42.658;23.320;2023-02-23T05:02:00;7.4;68
77700;DHT22;66867;42.658;23.320;2023-02-23T05:03:00;7.4;68
77700;DHT22;66867;42.658;23.320;2023-02-23T05:04:00;7.4;68
77700;DHT22;66867;42.658;23.320;2023-02-23T05:05:00;7.4;68
77700;DHT22;66867;42.658;23.320;2023-02-23T05:06:00;7.4;68
77700;DHT22;66867;42.658;23.320;2023-02-23T05:07:00;7.4;68
77700;DHT22;66867;42.658;23.320;2023-02-23T05:08:00;7.4;68
77700;DHT22;66867;42.658;23.320;2023-02-23T05:09:00;7.4;68
77700;DHT22;66867;42.658;23.320;2023-02-23T05:10:00;7.4;68
77700;DHT22;66867;42.658;23.320;2023-02-23T05:11:00;7.3;68
77700;DHT22;66867;42.658;23.320;2023-02-23T05:12:00;7.3;68
77700;DHT22;66867;42.658;23.320;2023-02-23T05:13:00;7.3;68
77700;DHT22;66867;42.658;23.320;2023-02-23T05:15:00;7.3;68
77700;DHT22;66867;42.658;23.320;2023-02-23T05:16:00;7.3;68
77700;DHT22;66867;42.658;23.320;2023-02-23T05:17:00;7.3;68
77700;DHT22;66867;42.658;23.320;2023-02-23T05:18:00;7.3;68
77700;DHT22;66867;42.658;23.320;2023-02-23T05:20:00;7.3;68
77700;DHT22;66867;42.658;23.320;2023-02-23T05:21:04;7.3;68
77700;DHT22;66867;42.658;23.320;2023-02-23T05:22:00;7.3;69
77700;DHT22;66867;42.658;23.320;2023-02-23T05:23:00;7.3;69
77700;DHT22;66867;42.658;23.320;2023-02-23T05:24:00;7.3;69
77700;DHT22;66867;42.658;23.320;2023-02-23T05:25:00;7.3;70
77700;DHT22;66867;42.658;23.320;2023-02-23T05:26:01;7.3;70
77700;DHT22;66867;42.658;23.320;2023-02-23T05:27:00;7.3;70
77700;DHT22;66867;42.658;23.320;2023-02-23T05:28:00;7.3;71
77700;DHT22;66867;42.658;23.320;2023-02-23T05:29:00;7.4;71
77700;DHT22;66867;42.658;23.320;2023-02-23T05:30:00;7.4;71
77700;DHT22;66867;42.658;23.320;2023-02-23T05:31:00;7.4;71
77700;DHT22;66867;42.658;23.320;2023-02-23T05:32:00;7.4;71
77700;DHT22;66867;42.658;23.320;2023-02-23T05:33:00;7.4;71
77700;DHT22;66867;42.658;23.320;2023-02-23T05:34:00;7.5;70
77700;DHT22;66867;42.658;23.320;2023-02-23T05:35:00;7.5;70
77700;DHT22;66867;42.658;23.320;2023-02-23T05:36:03;7.5;70
77700;DHT22;66867;42.658;23.320;2023-02-23T05:37:00;7.5;70
77700;DHT22;66867;42.658;23.320;2023-02-23T05:38:00;7.6;70
77700;DHT22;66867;42.658;23.320;2023-02-23T05:39:00;7.6;69
77700;DHT22;66867;42.658;23.320;2023-02-23T05:40:00;7.6;69
77700;DHT22;66867;42.658;23.320;2023-02-23T05:41:04;7.6;69
77700;DHT22;66867;42.658;23.320;2023-02-23T05:42:00;7.6;69
77700;DHT22;66867;42.658;23.320;2023-02-23T05:43:00;7.6;69
77700;DHT22;66867;42.658;23.320;2023-02-23T05:44:00;7.6;70
77700;DHT22;66867;42.658;23.320;2023-02-23T05:45:00;7.6;70
77700;DHT22;66867;42.658;23.320;2023-02-23T05:46:00;7.6;70
77700;DHT22;66867;42.658;23.320;2023-02-23T05:47:00;7.7;70
77700;DHT22;66867;42.658;23.320;2023-02-23T05:48:00;7.7;70
77700;DHT22;66867;42.658;23.320;2023-02-23T05:49:00;7.7;70
77700;DHT22;66867;42.658;23.320;2023-02-23T05:50:00;7.7;70
77700;DHT22;66867;42.658;23.320;2023-02-23T05:51:02;7.8;69
77700;DHT22;66867;42.658;23.320;2023-02-23T05:52:00;7.8;69
77700;DHT22;66867;42.658;23.320;2023-02-23T05:53:00;7.8;69
77700;DHT22;66867;42.658;23.320;2023-02-23T05:54:00;7.8;70
77700;DHT22;66867;42.658;23.320;2023-02-23T05:55:00;7.9;70
77700;DHT22;66867;42.658;23.320;2023-02-23T05:56:00;7.9;70
77700;DHT22;66867;42.658;23.320;2023-02-23T05:57:00;7.9;70
77700;DHT22;66867;42.658;23.320;2023-02-23T05:58:00;7.9;70
77700;DHT22;66867;42.658;23.320;2023-02-23T05:59:00;8.0;70
77700;DHT22;66867;42.658;23.320;2023-02-23T06:00:00;8.0;70
77700;DHT22;66867;42.658;23.320;2023-02-23T06:01:00;8.1;70
77700;DHT22;66867;42.658;23.320;2023-02-23T06:02:00;8.3;70
77700;DHT22;66867;42.658;23.320;2023-02-23T06:03:00;8.5;69
77700;DHT22;66867;42.658;23.320;2023-02-23T06:04:00;8.6;69
77700;DHT22;66867;42.658;23.320;2023-02-23T06:05:00;8.7;68
77700;DHT22;66867;42.658;23.320;2023-02-23T06:06:00;8.9;68
77700;DHT22;66867;42.658;23.320;2023-02-23T06:07:00;8.9;68
77700;DHT22;66867;42.658;23.320;2023-02-23T06:08:00;9.1;68
77700;DHT22;66867;42.658;23.320;2023-02-23T06:09:01;9.2;67
77700;DHT22;66867;42.658;23.320;2023-02-23T06:10:00;9.3;67
77700;DHT22;66867;42.658;23.320;2023-02-23T06:11:00;9.4;67
77700;DHT22;66867;42.658;23.320;2023-02-23T06:12:00;9.6;67
77700;DHT22;66867;42.658;23.320;2023-02-23T06:13:00;9.7;66
77700;DHT22;66867;42.658;23.320;2023-02-23T06:14:00;9.7;66
77700;DHT22;66867;42.658;23.320;2023-02-23T06:15:00;9.8;66
77700;DHT22;66867;42.658;23.320;2023-02-23T06:16:00;10.0;66
77700;DHT22;66867;42.658;23.320;2023-02-23T06:17:00;10.1;66
77700;DHT22;66867;42.658;23.320;2023-02-23T06:18:00;10.2;65
77700;DHT22;66867;42.658;23.320;2023-02-23T06:19:00;10.3;65
77700;DHT22;66867;42.658;23.320;2023-02-23T06:20:00;10.5;65
77700;DHT22;66867;42.658;23.320;2023-02-23T06:21:00;10.6;65
77700;DHT22;66867;42.658;23.320;2023-02-23T06:22:00;10.7;64
77700;DHT22;66867;42.658;23.320;2023-02-23T06:23:00;10.8;64
77700;DHT22;66867;42.658;23.320;2023-02-23T06:24:00;10.9;63
77700;DHT22;66867;42.658;23.320;2023-02-23T06:25:00;11.0;63
77700;DHT22;66867;42.658;23.320;2023-02-23T06:27:00;11.2;63
77700;DHT22;66867;42.658;23.320;2023-02-23T06:28:00;11.3;63
77700;DHT22;66867;42.658;23.320;2023-02-23T06:29:00;11.4;63
77700;DHT22;66867;42.658;23.320;2023-02-23T06:30:00;11.5;62
77700;DHT22;66867;42.658;23.320;2023-02-23T06:31:00;11.5;62
77700;DHT22;66867;42.658;23.320;2023-02-23T06:32:00;11.6;61
77700;DHT22;66867;42.658;23.320;2023-02-23T06:33:00;11.7;61
77700;DHT22;66867;42.658;23.320;2023-02-23T06:34:00;11.9;60
77700;DHT22;66867;42.658;23.320;2023-02-23T06:35:00;12.0;60
77700;DHT22;66867;42.658;23.320;2023-02-23T06:36:00;12.0;60
77700;DHT22;66867;42.658;23.320;2023-02-23T06:42:00;12.5;58
77700;DHT22;66867;42.658;23.320;2023-02-23T06:43:00;12.6;58
77700;DHT22;66867;42.658;23.320;2023-02-23T06:44:00;12.6;58
77700;DHT22;66867;42.658;23.320;2023-02-23T06:45:00;12.7;57
77700;DHT22;66867;42.658;23.320;2023-02-23T06:46:00;12.8;57
77700;DHT22;66867;42.658;23.320;2023-02-23T06:47:02;12.8;57
77700;DHT22;66867;42.658;23.320;2023-02-23T06:48:00;13.0;56
77700;DHT22;66867;42.658;23.320;2023-02-23T06:49:00;13.1;56
77700;DHT22;66867;42.658;23.320;2023-02-23T06:50:00;13.2;56
77700;DHT22;66867;42.658;23.320;2023-02-23T06:51:00;13.3;55
77700;DHT22;66867;42.658;23.320;2023-02-23T06:52:00;13.2;56
77700;DHT22;66867;42.658;23.320;2023-02-23T06:53:00;13.4;56
77700;DHT22;66867;42.658;23.320;2023-02-23T06:54:00;13.5;55
77700;DHT22;66867;42.658;23.320;2023-02-23T06:55:00;13.6;55
77700;DHT22;66867;42.658;23.320;2023-02-23T06:56:00;13.8;54
77700;DHT22;66867;42.658;23.320;2023-02-23T06:57:00;13.9;54
77700;DHT22;66867;42.658;23.320;2023-02-23T06:58:00;14.0;54
77700;DHT22;66867;42.658;23.320;2023-02-23T06:59:00;14.1;54
77700;DHT22;66867;42.658;23.320;2023-02-23T07:00:00;14.0;54
77700;DHT22;66867;42.658;23.320;2023-02-23T07:01:00;14.0;54
77700;DHT22;66867;42.658;23.320;2023-02-23T07:02:00;14.2;53
77700;DHT22;66867;42.658;23.320;2023-02-23T07:03:00;14.3;53
77700;DHT22;66867;42.658;23.320;2023-02-23T07:04:00;14.4;52
77700;DHT22;66867;42.658;23.320;2023-02-23T07:05:00;14.5;52
77700;DHT22;66867;42.658;23.320;2023-02-23T07:06:00;14.6;52
77700;DHT22;66867;42.658;23.320;2023-02-23T07:07:00;14.6;52
77700;DHT22;66867;42.658;23.320;2023-02-23T07:08:00;14.7;52
77700;DHT22;66867;42.658;23.320;2023-02-23T07:09:00;14.8;52
77700;DHT22;66867;42.658;23.320;2023-02-23T07:10:00;14.7;52
77700;DHT22;66867;42.658;23.320;2023-02-23T07:11:04;14.7;52
77700;DHT22;66867;42.658;23.320;2023-02-23T07:12:00;14.8;52
77700;DHT22;66867;42.658;23.320;2023-02-23T07:13:00;14.9;52
77700;DHT22;66867;42.658;23.320;2023-02-23T07:14:00;15.0;51
77700;DHT22;66867;42.658;23.320;2023-02-23T07:15:00;15.2;51
77700;DHT22;66867;42.658;23.320;2023-02-23T07:16:00;15.1;51
77700;DHT22;66867;42.658;23.320;2023-02-23T07:17:00;15.3;51
77700;DHT22;66867;42.658;23.320;2023-02-23T07:18:00;15.5;50
77700;DHT22;66867;42.658;23.320;2023-02-23T07:19:00;15.4;51
77700;DHT22;66867;42.658;23.320;2023-02-23T07:20:00;15.4;51
77700;DHT22;66867;42.658;23.320;2023-02-23T07:21:00;15.5;51
77700;DHT22;66867;42.658;23.320;2023-02-23T07:22:00;15.6;50
77700;DHT22;66867;42.658;23.320;2023-02-23T07:23:00;15.6;50
77700;DHT22;66867;42.658;23.320;2023-02-23T07:24:00;15.8;50
77700;DHT22;66867;42.658;23.320;2023-02-23T07:25:00;15.9;50
77700;DHT22;66867;42.658;23.320;2023-02-23T07:26:00;16.0;49
77700;DHT22;66867;42.658;23.320;2023-02-23T07:27:00;16.2;49
77700;DHT22;66867;42.658;23.320;2023-02-23T07:28:00;16.3;49
77700;DHT22;66867;42.658;23.320;2023-02-23T07:29:01;16.2;49
77700;DHT22;66867;42.658;23.320;2023-02-23T07:30:00;16.3;49
77700;DHT22;66867;42.658;23.320;2023-02-23T07:31:00;16.5;49
77700;DHT22;66867;42.658;23.320;2023-02-23T07:32:00;16.5;48